sensor_id;sensor_type;location;lat;lon;timestamp;P1;durP1;ratioP1;P2;durP2;ratioP2
30862;SDS011;17573;55.922;37.540;2023-09-19T00:01:15;22.90;;;14.60;;
30862;SDS011;17573;55.922;37.540;2023-09-19T00:03:45;20.30;;;13.88;;
30862;SDS011;17573;55.922;37.540;2023-09-19T00:06:11;23.60;;;14.50;;
30862;SDS011;17573;55.922;37.540;2023-09-19T00:08:41;21.50;;;14.70;;
30862;SDS011;17573;55.922;37.540;2023-09-19T00:11:09;30.67;;;13.40;;
30862;SDS011;17573;55.922;37.540;2023-09-19T00:13:36;26.38;;;14.05;;
30862;SDS011;17573;55.922;37.540;2023-09-19T00:16:08;24.80;;;14.75;;
30862;SDS011;17573;55.922;37.540;2023-09-19T00:18:36;29.70;;;14.23;;
30862;SDS011;17573;55.922;37.540;2023-09-19T00:21:03;21.90;;;14.55;;
30862;SDS011;17573;55.922;37.540;2023-09-19T00:23:32;22.92;;;14.18;;
30862;SDS011;17573;55.922;37.540;2023-09-19T00:25:59;20.10;;;13.25;;
30862;SDS011;17573;55.922;37.540;2023-09-19T00:28:26;21.83;;;13.45;;
30862;SDS011;17573;55.922;37.540;2023-09-19T00:30:53;21.45;;;14.45;;
30862;SDS011;17573;55.922;37.540;2023-09-19T00:33:20;19.05;;;14.70;;
30862;SDS011;17573;55.922;37.540;2023-09-19T00:35:50;25.10;;;14.45;;
30862;SDS011;17573;55.922;37.540;2023-09-19T00:38:17;18.50;;;13.80;;
30862;SDS011;17573;55.922;37.540;2023-09-19T00:40:48;20.83;;;13.65;;
30862;SDS011;17573;55.922;37.540;2023-09-19T00:43:15;19.73;;;13.35;;
30862;SDS011;17573;55.922;37.540;2023-09-19T00:45:43;18.70;;;13.27;;
30862;SDS011;17573;55.922;37.540;2023-09-19T00:48:11;22.50;;;13.88;;
30862;SDS011;17573;55.922;37.540;2023-09-19T00:50:37;21.20;;;13.65;;
30862;SDS011;17573;55.922;37.540;2023-09-19T00:53:07;23.40;;;13.13;;
30862;SDS011;17573;55.922;37.540;2023-09-19T00:55:33;19.73;;;13.38;;
30862;SDS011;17573;55.922;37.540;2023-09-19T00:57:59;18.73;;;12.50;;
30862;SDS011;17573;55.922;37.540;2023-09-19T01:00:25;22.63;;;13.25;;
30862;SDS011;17573;55.922;37.540;2023-09-19T01:02:51;16.48;;;12.65;;
30862;SDS011;17573;55.922;37.540;2023-09-19T01:05:17;20.02;;;13.05;;
30862;SDS011;17573;55.922;37.540;2023-09-19T01:07:44;19.13;;;13.55;;
30862;SDS011;17573;55.922;37.540;2023-09-19T01:10:12;17.50;;;13.32;;
30862;SDS011;17573;55.922;37.540;2023-09-19T01:23:21;18.13;;;13.20;;
30862;SDS011;17573;55.922;37.540;2023-09-19T01:28:51;23.55;;;12.52;;
30862;SDS011;17573;55.922;37.540;2023-09-19T01:31:23;22.83;;;13.75;;
30862;SDS011;17573;55.922;37.540;2023-09-19T01:33:57;19.23;;;13.32;;
30862;SDS011;17573;55.922;37.540;2023-09-19T01:36:28;19.20;;;13.13;;
30862;SDS011;17573;55.922;37.540;2023-09-19T01:38:54;25.92;;;13.88;;
30862;SDS011;17573;55.922;37.540;2023-09-19T01:41:24;21.83;;;13.77;;
30862;SDS011;17573;55.922;37.540;2023-09-19T01:44:02;22.15;;;12.82;;
30862;SDS011;17573;55.922;37.540;2023-09-19T01:46:33;23.92;;;13.85;;
30862;SDS011;17573;55.922;37.540;2023-09-19T01:54:33;17.92;;;13.85;;
30862;SDS011;17573;55.922;37.540;2023-09-19T01:57:12;31.50;;;13.98;;
30862;SDS011;17573;55.922;37.540;2023-09-19T01:59:50;19.83;;;13.68;;
30862;SDS011;17573;55.922;37.540;2023-09-19T02:02:18;24.08;;;13.88;;
30862;SDS011;17573;55.922;37.540;2023-09-19T02:04:48;20.88;;;14.32;;
30862;SDS011;17573;55.922;37.540;2023-09-19T02:07:14;23.15;;;14.70;;
30862;SDS011;17573;55.922;37.540;2023-09-19T02:09:40;22.80;;;14.45;;
30862;SDS011;17573;55.922;37.540;2023-09-19T02:12:10;22.15;;;14.93;;
30862;SDS011;17573;55.922;37.540;2023-09-19T02:14:36;32.10;;;15.25;;
30862;SDS011;17573;55.922;37.540;2023-09-19T02:17:03;21.83;;;15.15;;
30862;SDS011;17573;55.922;37.540;2023-09-19T02:19:33;23.15;;;15.38;;
30862;SDS011;17573;55.922;37.540;2023-09-19T02:21:59;30.88;;;15.98;;
30862;SDS011;17573;55.922;37.540;2023-09-19T02:24:28;25.83;;;16.15;;
30862;SDS011;17573;55.922;37.540;2023-09-19T02:26:55;25.52;;;14.80;;
30862;SDS011;17573;55.922;37.540;2023-09-19T02:29:21;23.92;;;14.95;;
30862;SDS011;17573;55.922;37.540;2023-09-19T02:31:48;21.70;;;15.27;;
30862;SDS011;17573;55.922;37.540;2023-09-19T02:34:14;23.92;;;15.18;;
30862;SDS011;17573;55.922;37.540;2023-09-19T02:36:42;30.02;;;15.15;;
30862;SDS011;17573;55.922;37.540;2023-09-19T02:39:09;26.98;;;15.82;;
30862;SDS011;17573;55.922;37.540;2023-09-19T02:41:36;26.55;;;15.82;;
30862;SDS011;17573;55.922;37.540;2023-09-19T02:44:03;22.10;;;16.50;;
30862;SDS011;17573;55.922;37.540;2023-09-19T02:46:33;24.00;;;17.20;;
30862;SDS011;17573;55.922;37.540;2023-09-19T02:49:03;22.77;;;16.55;;
30862;SDS011;17573;55.922;37.540;2023-09-19T02:51:32;21.23;;;15.88;;
30862;SDS011;17573;55.922;37.540;2023-09-19T02:54:01;25.00;;;16.67;;
30862;SDS011;17573;55.922;37.540;2023-09-19T02:56:28;20.95;;;15.80;;
30862;SDS011;17573;55.922;37.540;2023-09-19T02:58:56;24.40;;;15.82;;
30862;SDS011;17573;55.922;37.540;2023-09-19T03:01:23;23.83;;;15.27;;
30862;SDS011;17573;55.922;37.540;2023-09-19T03:03:49;26.23;;;16.17;;
30862;SDS011;17573;55.922;37.540;2023-09-19T03:06:15;24.17;;;15.00;;
30862;SDS011;17573;55.922;37.540;2023-09-19T03:08:41;22.60;;;15.82;;
30862;SDS011;17573;55.922;37.540;2023-09-19T03:11:07;24.33;;;15.38;;
30862;SDS011;17573;55.922;37.540;2023-09-19T03:13:38;19.45;;;15.00;;
30862;SDS011;17573;55.922;37.540;2023-09-19T03:16:05;27.63;;;14.85;;
30862;SDS011;17573;55.922;37.540;2023-09-19T03:18:33;23.38;;;16.13;;
30862;SDS011;17573;55.922;37.540;2023-09-19T03:21:00;19.35;;;13.73;;
30862;SDS011;17573;55.922;37.540;2023-09-19T03:23:26;26.27;;;14.20;;
30862;SDS011;17573;55.922;37.540;2023-09-19T03:25:53;18.20;;;14.18;;
30862;SDS011;17573;55.922;37.540;2023-09-19T03:28:20;18.95;;;13.90;;
30862;SDS011;17573;55.922;37.540;2023-09-19T03:31:03;18.33;;;12.93;;
30862;SDS011;17573;55.922;37.540;2023-09-19T03:33:32;24.13;;;14.40;;
30862;SDS011;17573;55.922;37.540;2023-09-19T03:35:59;17.65;;;13.13;;
30862;SDS011;17573;55.922;37.540;2023-09-19T03:38:26;20.40;;;11.93;;
30862;SDS011;17573;55.922;37.540;2023-09-19T03:40:54;19.33;;;12.68;;
30862;SDS011;17573;55.922;37.540;2023-09-19T03:43:20;19.73;;;12.52;;
30862;SDS011;17573;55.922;37.540;2023-09-19T03:45:46;16.17;;;12.27;;
30862;SDS011;17573;55.922;37.540;2023-09-19T03:48:13;16.13;;;12.18;;
30862;SDS011;17573;55.922;37.540;2023-09-19T03:50:39;17.30;;;12.60;;
30862;SDS011;17573;55.922;37.540;2023-09-19T03:53:04;25.55;;;13.48;;
30862;SDS011;17573;55.922;37.540;2023-09-19T03:55:32;23.67;;;13.15;;
30862;SDS011;17573;55.922;37.540;2023-09-19T03:58:01;26.50;;;14.38;;
30862;SDS011;17573;55.922;37.540;2023-09-19T04:00:27;22.35;;;14.40;;
30862;SDS011;17573;55.922;37.540;2023-09-19T04:02:55;25.15;;;13.32;;
30862;SDS011;17573;55.922;37.540;2023-09-19T04:05:22;19.70;;;13.38;;
30862;SDS011;17573;55.922;37.540;2023-09-19T04:07:48;19.08;;;14.30;;
30862;SDS011;17573;55.922;37.540;2023-09-19T04:10:15;19.65;;;13.82;;
30862;SDS011;17573;55.922;37.540;2023-09-19T04:12:51;19.48;;;14.13;;
30862;SDS011;17573;55.922;37.540;2023-09-19T04:15:18;20.10;;;13.25;;
30862;SDS011;17573;55.922;37.540;2023-09-19T04:17:44;20.20;;;11.98;;
30862;SDS011;17573;55.922;37.540;2023-09-19T04:20:10;17.52;;;12.63;;
30862;SDS011;17573;55.922;37.540;2023-09-19T04:22:38;32.47;;;12.93;;
30862;SDS011;17573;55.922;37.540;2023-09-19T04:25:04;31.25;;;14.05;;
30862;SDS011;17573;55.922;37.540;2023-09-19T04:27:32;33.95;;;13.02;;
30862;SDS011;17573;55.922;37.540;2023-09-19T04:29:58;23.80;;;12.85;;
30862;SDS011;17573;55.922;37.540;2023-09-19T04:32:28;28.52;;;12.43;;
30862;SDS011;17573;55.922;37.540;2023-09-19T04:34:54;21.00;;;12.80;;
30862;SDS011;17573;55.922;37.540;2023-09-19T04:37:26;28.10;;;13.35;;
30862;SDS011;17573;55.922;37.540;2023-09-19T04:39:52;18.52;;;12.55;;
30862;SDS011;17573;55.922;37.540;2023-09-19T04:42:18;17.27;;;11.70;;
30862;SDS011;17573;55.922;37.540;2023-09-19T04:44:44;18.77;;;12.30;;
30862;SDS011;17573;55.922;37.540;2023-09-19T04:47:10;20.40;;;12.15;;
30862;SDS011;17573;55.922;37.540;2023-09-19T04:49:37;23.23;;;13.07;;
30862;SDS011;17573;55.922;37.540;2023-09-19T04:52:05;26.33;;;12.70;;
30862;SDS011;17573;55.922;37.540;2023-09-19T04:54:32;22.13;;;12.43;;
30862;SDS011;17573;55.922;37.540;2023-09-19T04:56:59;21.23;;;12.85;;
30862;SDS011;17573;55.922;37.540;2023-09-19T04:59:26;28.60;;;12.25;;
30862;SDS011;17573;55.922;37.540;2023-09-19T05:01:53;25.13;;;13.55;;
30862;SDS011;17573;55.922;37.540;2023-09-19T05:04:19;17.38;;;13.50;;
30862;SDS011;17573;55.922;37.540;2023-09-19T05:06:45;22.00;;;13.73;;
30862;SDS011;17573;55.922;37.540;2023-09-19T05:09:11;32.13;;;13.30;;
30862;SDS011;17573;55.922;37.540;2023-09-19T05:11:37;22.10;;;13.20;;
30862;SDS011;17573;55.922;37.540;2023-09-19T05:14:04;20.15;;;13.70;;
30862;SDS011;17573;55.922;37.540;2023-09-19T05:16:30;20.40;;;12.88;;
30862;SDS011;17573;55.922;37.540;2023-09-19T05:18:59;21.85;;;14.68;;
30862;SDS011;17573;55.922;37.540;2023-09-19T05:21:27;34.13;;;13.93;;
30862;SDS011;17573;55.922;37.540;2023-09-19T05:23:56;34.47;;;14.38;;
30862;SDS011;17573;55.922;37.540;2023-09-19T05:26:22;24.98;;;16.38;;
30862;SDS011;17573;55.922;37.540;2023-09-19T05:28:48;23.45;;;13.88;;
30862;SDS011;17573;55.922;37.540;2023-09-19T05:31:13;21.60;;;14.73;;
30862;SDS011;17573;55.922;37.540;2023-09-19T05:33:41;20.50;;;14.00;;
30862;SDS011;17573;55.922;37.540;2023-09-19T05:36:08;31.98;;;15.43;;
30862;SDS011;17573;55.922;37.540;2023-09-19T05:38:36;22.75;;;14.80;;
30862;SDS011;17573;55.922;37.540;2023-09-19T05:41:02;24.98;;;14.77;;
30862;SDS011;17573;55.922;37.540;2023-09-19T05:43:28;38.65;;;18.60;;
30862;SDS011;17573;55.922;37.540;2023-09-19T05:45:54;29.70;;;15.60;;
30862;SDS011;17573;55.922;37.540;2023-09-19T05:48:22;25.13;;;16.10;;
30862;SDS011;17573;55.922;37.540;2023-09-19T05:50:48;29.27;;;16.75;;
30862;SDS011;17573;55.922;37.540;2023-09-19T05:53:14;23.92;;;15.93;;
30862;SDS011;17573;55.922;37.540;2023-09-19T05:55:40;21.83;;;16.20;;
30862;SDS011;17573;55.922;37.540;2023-09-19T05:58:07;38.72;;;17.10;;
30862;SDS011;17573;55.922;37.540;2023-09-19T06:00:34;37.58;;;16.80;;
30862;SDS011;17573;55.922;37.540;2023-09-19T06:03:00;23.75;;;16.40;;
30862;SDS011;17573;55.922;37.540;2023-09-19T06:05:27;25.83;;;15.38;;
30862;SDS011;17573;55.922;37.540;2023-09-19T06:07:53;27.02;;;16.25;;
30862;SDS011;17573;55.922;37.540;2023-09-19T06:10:20;25.73;;;15.10;;
30862;SDS011;17573;55.922;37.540;2023-09-19T06:12:46;21.70;;;16.05;;
30862;SDS011;17573;55.922;37.540;2023-09-19T06:15:14;29.35;;;16.20;;
30862;SDS011;17573;55.922;37.540;2023-09-19T06:17:51;30.65;;;15.15;;
30862;SDS011;17573;55.922;37.540;2023-09-19T06:20:22;22.15;;;15.20;;
30862;SDS011;17573;55.922;37.540;2023-09-19T06:22:49;30.17;;;14.60;;
30862;SDS011;17573;55.922;37.540;2023-09-19T06:25:15;26.95;;;15.85;;
30862;SDS011;17573;55.922;37.540;2023-09-19T06:27:53;30.30;;;16.15;;
30862;SDS011;17573;55.922;37.540;2023-09-19T06:30:20;30.15;;;16.35;;
30862;SDS011;17573;55.922;37.540;2023-09-19T06:32:47;22.45;;;16.33;;
30862;SDS011;17573;55.922;37.540;2023-09-19T06:35:14;26.05;;;15.35;;
30862;SDS011;17573;55.922;37.540;2023-09-19T06:37:41;29.80;;;16.23;;
30862;SDS011;17573;55.922;37.540;2023-09-19T06:40:11;26.00;;;15.85;;
30862;SDS011;17573;55.922;37.540;2023-09-19T06:42:41;23.65;;;15.45;;
30862;SDS011;17573;55.922;37.540;2023-09-19T06:45:07;22.92;;;15.50;;
30862;SDS011;17573;55.922;37.540;2023-09-19T06:47:36;27.35;;;15.30;;
30862;SDS011;17573;55.922;37.540;2023-09-19T06:50:02;22.52;;;15.30;;
30862;SDS011;17573;55.922;37.540;2023-09-19T06:52:30;24.40;;;15.70;;
30862;SDS011;17573;55.922;37.540;2023-09-19T06:54:56;25.63;;;15.20;;
30862;SDS011;17573;55.922;37.540;2023-09-19T06:57:22;30.70;;;16.15;;
30862;SDS011;17573;55.922;37.540;2023-09-19T06:59:48;36.05;;;16.48;;
30862;SDS011;17573;55.922;37.540;2023-09-19T07:02:13;19.02;;;15.05;;
30862;SDS011;17573;55.922;37.540;2023-09-19T07:04:39;21.25;;;15.13;;
30862;SDS011;17573;55.922;37.540;2023-09-19T07:07:06;30.60;;;16.50;;
30862;SDS011;17573;55.922;37.540;2023-09-19T07:09:34;20.90;;;15.93;;
30862;SDS011;17573;55.922;37.540;2023-09-19T07:12:00;29.73;;;17.25;;
30862;SDS011;17573;55.922;37.540;2023-09-19T07:14:26;27.67;;;15.57;;
30862;SDS011;17573;55.922;37.540;2023-09-19T07:16:52;30.20;;;17.95;;
30862;SDS011;17573;55.922;37.540;2023-09-19T07:19:18;33.38;;;17.25;;
30862;SDS011;17573;55.922;37.540;2023-09-19T07:21:44;40.33;;;19.40;;
30862;SDS011;17573;55.922;37.540;2023-09-19T07:24:10;26.73;;;19.40;;
30862;SDS011;17573;55.922;37.540;2023-09-19T07:26:35;26.60;;;17.75;;
30862;SDS011;17573;55.922;37.540;2023-09-19T07:29:01;30.95;;;19.08;;
30862;SDS011;17573;55.922;37.540;2023-09-19T07:31:29;27.90;;;18.48;;
30862;SDS011;17573;55.922;37.540;2023-09-19T07:33:57;40.22;;;19.83;;
30862;SDS011;17573;55.922;37.540;2023-09-19T07:36:23;36.38;;;19.27;;
30862;SDS011;17573;55.922;37.540;2023-09-19T07:38:50;26.85;;;19.30;;
30862;SDS011;17573;55.922;37.540;2023-09-19T07:41:16;30.90;;;19.02;;
30862;SDS011;17573;55.922;37.540;2023-09-19T07:43:42;42.85;;;20.35;;
30862;SDS011;17573;55.922;37.540;2023-09-19T07:46:09;34.88;;;19.73;;
30862;SDS011;17573;55.922;37.540;2023-09-19T07:48:37;30.60;;;20.38;;
30862;SDS011;17573;55.922;37.540;2023-09-19T07:51:05;34.35;;;20.17;;
30862;SDS011;17573;55.922;37.540;2023-09-19T07:53:32;36.67;;;20.83;;
30862;SDS011;17573;55.922;37.540;2023-09-19T07:56:06;30.83;;;19.70;;
30862;SDS011;17573;55.922;37.540;2023-09-19T07:58:34;29.15;;;19.25;;
30862;SDS011;17573;55.922;37.540;2023-09-19T08:01:04;39.90;;;21.55;;
30862;SDS011;17573;55.922;37.540;2023-09-19T08:03:38;42.55;;;20.52;;
30862;SDS011;17573;55.922;37.540;2023-09-19T08:06:08;36.15;;;22.33;;
30862;SDS011;17573;55.922;37.540;2023-09-19T08:08:36;51.25;;;25.73;;
30862;SDS011;17573;55.922;37.540;2023-09-19T08:11:05;30.50;;;22.05;;
30862;SDS011;17573;55.922;37.540;2023-09-19T08:13:39;35.75;;;21.50;;
30862;SDS011;17573;55.922;37.540;2023-09-19T08:16:15;62.88;;;23.80;;
30862;SDS011;17573;55.922;37.540;2023-09-19T08:18:41;31.35;;;20.70;;
30862;SDS011;17573;55.922;37.540;2023-09-19T08:21:07;42.13;;;24.35;;
30862;SDS011;17573;55.922;37.540;2023-09-19T08:23:37;45.53;;;23.25;;
30862;SDS011;17573;55.922;37.540;2023-09-19T08:26:04;42.17;;;22.58;;
30862;SDS011;17573;55.922;37.540;2023-09-19T08:28:35;39.78;;;22.48;;
30862;SDS011;17573;55.922;37.540;2023-09-19T08:31:05;55.00;;;23.75;;
30862;SDS011;17573;55.922;37.540;2023-09-19T08:33:36;45.97;;;23.38;;
30862;SDS011;17573;55.922;37.540;2023-09-19T08:36:06;37.50;;;22.88;;
30862;SDS011;17573;55.922;37.540;2023-09-19T08:38:33;50.40;;;25.25;;
30862;SDS011;17573;55.922;37.540;2023-09-19T08:41:00;52.20;;;22.95;;
30862;SDS011;17573;55.922;37.540;2023-09-19T08:43:31;54.67;;;26.30;;
30862;SDS011;17573;55.922;37.540;2023-09-19T08:46:06;44.95;;;23.42;;
30862;SDS011;17573;55.922;37.540;2023-09-19T08:48:36;40.50;;;23.75;;
30862;SDS011;17573;55.922;37.540;2023-09-19T08:51:10;39.13;;;24.10;;
30862;SDS011;17573;55.922;37.540;2023-09-19T08:56:25;35.75;;;23.90;;
30862;SDS011;17573;55.922;37.540;2023-09-19T08:58:59;45.65;;;22.88;;
30862;SDS011;17573;55.922;37.540;2023-09-19T09:01:28;42.15;;;24.25;;
30862;SDS011;17573;55.922;37.540;2023-09-19T09:03:55;52.78;;;23.67;;
30862;SDS011;17573;55.922;37.540;2023-09-19T09:06:22;45.53;;;25.45;;
30862;SDS011;17573;55.922;37.540;2023-09-19T09:08:51;45.45;;;24.50;;
30862;SDS011;17573;55.922;37.540;2023-09-19T09:11:18;43.00;;;22.95;;
30862;SDS011;17573;55.922;37.540;2023-09-19T09:13:44;53.20;;;23.38;;
30862;SDS011;17573;55.922;37.540;2023-09-19T09:16:11;48.47;;;22.35;;
30862;SDS011;17573;55.922;37.540;2023-09-19T09:18:39;43.95;;;24.88;;
30862;SDS011;17573;55.922;37.540;2023-09-19T09:21:06;41.42;;;23.65;;
30862;SDS011;17573;55.922;37.540;2023-09-19T09:23:32;38.38;;;21.55;;
30862;SDS011;17573;55.922;37.540;2023-09-19T09:25:59;50.40;;;25.05;;
30862;SDS011;17573;55.922;37.540;2023-09-19T09:28:29;47.70;;;24.90;;
30862;SDS011;17573;55.922;37.540;2023-09-19T09:30:59;44.35;;;22.85;;
30862;SDS011;17573;55.922;37.540;2023-09-19T09:33:33;44.28;;;23.45;;
30862;SDS011;17573;55.922;37.540;2023-09-19T09:36:00;39.72;;;22.80;;
30862;SDS011;17573;55.922;37.540;2023-09-19T09:38:47;52.58;;;24.17;;
30862;SDS011;17573;55.922;37.540;2023-09-19T09:41:21;44.60;;;23.33;;
30862;SDS011;17573;55.922;37.540;2023-09-19T09:44:16;39.90;;;22.17;;
30862;SDS011;17573;55.922;37.540;2023-09-19T09:46:43;44.15;;;24.58;;
30862;SDS011;17573;55.922;37.540;2023-09-19T09:49:22;51.95;;;22.20;;
30862;SDS011;17573;55.922;37.540;2023-09-19T09:52:01;47.47;;;23.15;;
30862;SDS011;17573;55.922;37.540;2023-09-19T09:54:31;44.70;;;21.83;;
30862;SDS011;17573;55.922;37.540;2023-09-19T09:57:06;49.25;;;23.08;;
30862;SDS011;17573;55.922;37.540;2023-09-19T09:59:50;49.90;;;24.88;;
30862;SDS011;17573;55.922;37.540;2023-09-19T10:02:25;38.40;;;22.58;;
30862;SDS011;17573;55.922;37.540;2023-09-19T10:04:59;33.53;;;20.38;;
30862;SDS011;17573;55.922;37.540;2023-09-19T10:07:40;39.63;;;22.23;;
30862;SDS011;17573;55.922;37.540;2023-09-19T10:10:08;41.42;;;23.20;;
30862;SDS011;17573;55.922;37.540;2023-09-19T10:12:50;44.65;;;21.25;;
30862;SDS011;17573;55.922;37.540;2023-09-19T10:15:18;35.42;;;21.83;;
30862;SDS011;17573;55.922;37.540;2023-09-19T10:17:50;43.57;;;23.13;;
30862;SDS011;17573;55.922;37.540;2023-09-19T10:20:19;54.47;;;23.25;;
30862;SDS011;17573;55.922;37.540;2023-09-19T10:23:08;43.83;;;22.40;;
30862;SDS011;17573;55.922;37.540;2023-09-19T10:25:37;37.47;;;20.98;;
30862;SDS011;17573;55.922;37.540;2023-09-19T10:28:06;43.38;;;21.63;;
30862;SDS011;17573;55.922;37.540;2023-09-19T10:30:37;33.50;;;21.33;;
30862;SDS011;17573;55.922;37.540;2023-09-19T10:33:09;38.90;;;21.13;;
30862;SDS011;17573;55.922;37.540;2023-09-19T10:35:37;50.33;;;21.15;;
30862;SDS011;17573;55.922;37.540;2023-09-19T10:38:09;45.70;;;20.77;;
30862;SDS011;17573;55.922;37.540;2023-09-19T10:40:36;43.95;;;21.17;;
30862;SDS011;17573;55.922;37.540;2023-09-19T10:43:06;40.42;;;22.13;;
30862;SDS011;17573;55.922;37.540;2023-09-19T10:45:33;43.60;;;21.83;;
30862;SDS011;17573;55.922;37.540;2023-09-19T10:48:01;43.85;;;23.08;;
30862;SDS011;17573;55.922;37.540;2023-09-19T10:50:34;46.92;;;24.15;;
30862;SDS011;17573;55.922;37.540;2023-09-19T10:53:02;52.80;;;23.92;;
30862;SDS011;17573;55.922;37.540;2023-09-19T10:55:30;33.95;;;22.27;;
30862;SDS011;17573;55.922;37.540;2023-09-19T10:57:58;41.40;;;21.95;;
30862;SDS011;17573;55.922;37.540;2023-09-19T11:00:25;53.70;;;22.20;;
30862;SDS011;17573;55.922;37.540;2023-09-19T11:05:37;37.17;;;19.90;;
30862;SDS011;17573;55.922;37.540;2023-09-19T11:08:06;36.63;;;22.15;;
30862;SDS011;17573;55.922;37.540;2023-09-19T11:10:47;31.50;;;20.98;;
30862;SDS011;17573;55.922;37.540;2023-09-19T11:13:23;34.30;;;20.27;;
30862;SDS011;17573;55.922;37.540;2023-09-19T11:27:08;31.60;;;20.15;;
30862;SDS011;17573;55.922;37.540;2023-09-19T11:29:39;39.20;;;20.15;;
30862;SDS011;17573;55.922;37.540;2023-09-19T11:32:06;30.40;;;20.38;;
30862;SDS011;17573;55.922;37.540;2023-09-19T11:34:38;46.75;;;20.67;;
30862;SDS011;17573;55.922;37.540;2023-09-19T11:39:39;38.38;;;22.42;;
30862;SDS011;17573;55.922;37.540;2023-09-19T11:48:12;41.97;;;20.88;;
30862;SDS011;17573;55.922;37.540;2023-09-19T11:50:44;35.88;;;20.88;;
30862;SDS011;17573;55.922;37.540;2023-09-19T11:53:14;43.20;;;21.33;;
30862;SDS011;17573;55.922;37.540;2023-09-19T11:55:41;38.22;;;20.55;;
30862;SDS011;17573;55.922;37.540;2023-09-19T11:58:17;41.95;;;22.70;;
30862;SDS011;17573;55.922;37.540;2023-09-19T12:00:45;38.50;;;22.05;;
30862;SDS011;17573;55.922;37.540;2023-09-19T12:03:12;41.90;;;20.80;;
30862;SDS011;17573;55.922;37.540;2023-09-19T12:05:39;35.50;;;21.80;;
30862;SDS011;17573;55.922;37.540;2023-09-19T12:08:05;35.42;;;21.23;;
30862;SDS011;17573;55.922;37.540;2023-09-19T12:10:49;43.58;;;21.63;;
30862;SDS011;17573;55.922;37.540;2023-09-19T12:13:19;58.28;;;22.63;;
30862;SDS011;17573;55.922;37.540;2023-09-19T12:15:46;42.85;;;21.75;;
30862;SDS011;17573;55.922;37.540;2023-09-19T12:18:31;40.75;;;22.90;;
30862;SDS011;17573;55.922;37.540;2023-09-19T12:20:56;49.08;;;21.58;;
30862;SDS011;17573;55.922;37.540;2023-09-19T12:23:28;47.17;;;20.67;;
30862;SDS011;17573;55.922;37.540;2023-09-19T12:25:54;37.20;;;20.75;;
30862;SDS011;17573;55.922;37.540;2023-09-19T12:28:23;50.63;;;19.90;;
30862;SDS011;17573;55.922;37.540;2023-09-19T12:30:52;44.15;;;20.45;;
30862;SDS011;17573;55.922;37.540;2023-09-19T12:33:21;41.42;;;21.23;;
30862;SDS011;17573;55.922;37.540;2023-09-19T12:35:52;40.50;;;21.33;;
30862;SDS011;17573;55.922;37.540;2023-09-19T12:38:24;31.70;;;19.27;;
30862;SDS011;17573;55.922;37.540;2023-09-19T12:41:01;35.53;;;20.00;;
30862;SDS011;17573;55.922;37.540;2023-09-19T12:43:30;31.92;;;18.98;;
30862;SDS011;17573;55.922;37.540;2023-09-19T12:45:59;33.47;;;18.88;;
30862;SDS011;17573;55.922;37.540;2023-09-19T12:48:26;40.97;;;19.00;;
30862;SDS011;17573;55.922;37.540;2023-09-19T12:51:12;41.33;;;19.75;;
30862;SDS011;17573;55.922;37.540;2023-09-19T12:53:45;41.65;;;20.13;;
30862;SDS011;17573;55.922;37.540;2023-09-19T12:56:14;45.88;;;20.92;;
30862;SDS011;17573;55.922;37.540;2023-09-19T12:58:51;49.65;;;21.75;;
30862;SDS011;17573;55.922;37.540;2023-09-19T13:01:19;30.33;;;18.38;;
30862;SDS011;17573;55.922;37.540;2023-09-19T13:03:45;47.70;;;18.27;;
30862;SDS011;17573;55.922;37.540;2023-09-19T13:06:11;38.63;;;19.35;;
30862;SDS011;17573;55.922;37.540;2023-09-19T13:08:38;39.80;;;18.65;;
30862;SDS011;17573;55.922;37.540;2023-09-19T13:11:14;40.70;;;19.30;;
30862;SDS011;17573;55.922;37.540;2023-09-19T13:16:21;56.70;;;20.48;;
30862;SDS011;17573;55.922;37.540;2023-09-19T13:18:50;105.82;;;26.40;;
30862;SDS011;17573;55.922;37.540;2023-09-19T13:21:28;208.10;;;38.55;;
30862;SDS011;17573;55.922;37.540;2023-09-19T13:26:46;44.08;;;18.88;;
30862;SDS011;17573;55.922;37.540;2023-09-19T13:29:12;33.67;;;17.70;;
30862;SDS011;17573;55.922;37.540;2023-09-19T13:31:39;49.65;;;18.30;;
30862;SDS011;17573;55.922;37.540;2023-09-19T13:34:07;43.50;;;19.98;;
30862;SDS011;17573;55.922;37.540;2023-09-19T13:36:33;74.38;;;23.52;;
30862;SDS011;17573;55.922;37.540;2023-09-19T13:38:59;101.65;;;25.90;;
30862;SDS011;17573;55.922;37.540;2023-09-19T13:41:25;48.45;;;18.05;;
30862;SDS011;17573;55.922;37.540;2023-09-19T13:43:51;41.05;;;18.48;;
30862;SDS011;17573;55.922;37.540;2023-09-19T13:46:18;68.53;;;22.95;;
30862;SDS011;17573;55.922;37.540;2023-09-19T13:48:51;29.85;;;17.42;;
30862;SDS011;17573;55.922;37.540;2023-09-19T13:51:20;32.53;;;17.55;;
30862;SDS011;17573;55.922;37.540;2023-09-19T13:53:49;96.15;;;25.45;;
30862;SDS011;17573;55.922;37.540;2023-09-19T13:56:16;34.88;;;17.42;;
30862;SDS011;17573;55.922;37.540;2023-09-19T13:58:41;69.15;;;20.13;;
30862;SDS011;17573;55.922;37.540;2023-09-19T14:01:08;39.67;;;20.42;;
30862;SDS011;17573;55.922;37.540;2023-09-19T14:03:38;41.60;;;19.20;;
30862;SDS011;17573;55.922;37.540;2023-09-19T14:06:05;38.65;;;18.70;;
30862;SDS011;17573;55.922;37.540;2023-09-19T14:08:31;34.13;;;17.27;;
30862;SDS011;17573;55.922;37.540;2023-09-19T14:11:05;57.15;;;19.55;;
30862;SDS011;17573;55.922;37.540;2023-09-19T14:13:31;39.63;;;18.25;;
30862;SDS011;17573;55.922;37.540;2023-09-19T14:15:57;144.93;;;33.08;;
30862;SDS011;17573;55.922;37.540;2023-09-19T14:18:23;29.75;;;16.35;;
30862;SDS011;17573;55.922;37.540;2023-09-19T14:20:49;40.47;;;18.13;;
30862;SDS011;17573;55.922;37.540;2023-09-19T14:23:18;33.97;;;18.25;;
30862;SDS011;17573;55.922;37.540;2023-09-19T14:25:44;90.55;;;23.95;;
30862;SDS011;17573;55.922;37.540;2023-09-19T14:28:10;33.78;;;18.52;;
30862;SDS011;17573;55.922;37.540;2023-09-19T14:30:35;31.90;;;18.60;;
30862;SDS011;17573;55.922;37.540;2023-09-19T14:33:03;30.85;;;17.85;;
30862;SDS011;17573;55.922;37.540;2023-09-19T14:35:29;35.20;;;18.38;;
30862;SDS011;17573;55.922;37.540;2023-09-19T14:37:55;36.08;;;19.58;;
30862;SDS011;17573;55.922;37.540;2023-09-19T14:40:21;34.80;;;19.48;;
30862;SDS011;17573;55.922;37.540;2023-09-19T14:42:48;38.20;;;18.73;;
30862;SDS011;17573;55.922;37.540;2023-09-19T14:45:13;54.35;;;20.58;;
30862;SDS011;17573;55.922;37.540;2023-09-19T14:47:45;32.67;;;18.92;;
30862;SDS011;17573;55.922;37.540;2023-09-19T14:50:12;34.42;;;18.23;;
30862;SDS011;17573;55.922;37.540;2023-09-19T14:52:38;37.08;;;18.75;;
30862;SDS011;17573;55.922;37.540;2023-09-19T14:55:06;45.45;;;18.60;;
30862;SDS011;17573;55.922;37.540;2023-09-19T14:57:34;34.08;;;18.08;;
30862;SDS011;17573;55.922;37.540;2023-09-19T15:00:00;46.70;;;19.65;;
30862;SDS011;17573;55.922;37.540;2023-09-19T15:02:26;40.42;;;18.85;;
30862;SDS011;17573;55.922;37.540;2023-09-19T15:04:52;35.97;;;18.42;;
30862;SDS011;17573;55.922;37.540;2023-09-19T15:07:18;38.90;;;19.08;;